Time;durP1;ratioP1;P1;durP2;ratioP2;P2;SDS_P1;SDS_P2;PMS_P1;PMS_P2;Temp;Humidity;BMP_temperature;BMP_pressure;BME280_temperature;BME280_humidity;BME280_pressure;Samples;Min_cycle;Max_cycle;Signal;HPM_P1;HPM_P2
2021/06/13 00:00:01;;;;;;;2.77;2.22;;;;;;;22.69;68.33;100451.73;1689834;83;21078;-56
2021/06/13 00:02:27;;;;;;;2.92;2.27;;;;;;;22.68;68.34;100446.48;1718664;82;21453;-56
2021/06/13 00:04:53;;;;;;;2.35;2.00;;;;;;;22.67;68.30;100449.02;1688014;83;21080;-57
2021/06/13 00:07:19;;;;;;;3.05;2.08;;;;;;;22.65;68.27;100443.02;1721019;82;21583;-56
2021/06/13 00:09:45;;;;;;;3.22;2.42;;;;;;;22.62;68.22;100441.71;1722233;82;21914;-57
2021/06/13 00:12:12;;;;;;;2.87;2.37;;;;;;;22.59;68.21;100434.66;1684462;83;21021;-56
2021/06/13 00:14:38;;;;;;;3.05;2.00;;;;;;;22.57;68.16;100432.24;1714859;82;21119;-56
2021/06/13 00:17:04;;;;;;;2.77;1.80;;;;;;;22.56;68.12;100434.77;1717222;82;21670;-56
2021/06/13 00:19:31;;;;;;;2.27;1.87;;;;;;;22.58;68.11;100430.25;1686381;83;21135;-56
2021/06/13 00:21:57;;;;;;;3.30;2.17;;;;;;;22.57;68.20;100429.47;1692620;83;20986;-56
2021/06/13 00:24:23;;;;;;;3.05;2.50;;;;;;;22.58;68.26;100431.64;1694049;82;21083;-56
2021/06/13 00:26:49;;;;;;;2.77;2.33;;;;;;;22.57;68.33;100435.02;1720330;81;21320;-57
2021/06/13 00:29:15;;;;;;;2.92;2.17;;;;;;;22.57;68.38;100426.70;1716833;81;21571;-56
2021/06/13 00:31:41;;;;;;;2.98;2.30;;;;;;;22.57;68.37;100416.18;1710338;81;20960;-57
2021/06/13 00:34:07;;;;;;;3.10;2.20;;;;;;;22.56;68.31;100413.16;1698015;83;21061;-57
2021/06/13 00:36:34;;;;;;;2.83;2.10;;;;;;;22.56;68.23;100418.14;1714898;82;21598;-56
2021/06/13 00:39:00;;;;;;;3.10;2.40;;;;;;;22.53;68.20;100414.64;1709369;82;22128;-56
2021/06/13 00:41:26;;;;;;;2.80;2.12;;;;;;;22.52;68.16;100414.42;1714106;82;20913;-56
2021/06/13 00:43:52;;;;;;;2.83;2.00;;;;;;;22.51;68.11;100414.18;1735888;81;21018;-56
2021/06/13 00:46:18;;;;;;;3.47;2.25;;;;;;;22.51;68.05;100405.86;1737160;82;21063;-56
2021/06/13 00:48:44;;;;;;;2.55;2.00;;;;;;;22.52;68.04;100403.91;1735572;81;21023;-56
2021/06/13 00:51:10;;;;;;;2.30;1.90;;;;;;;22.52;68.09;100401.13;1737297;81;22037;-56
2021/06/13 00:53:36;;;;;;;3.02;2.22;;;;;;;22.51;68.14;100399.50;1736281;81;21020;-57
2021/06/13 00:56:03;;;;;;;2.42;2.10;;;;;;;22.51;68.17;100396.16;1738841;81;21617;-57
2021/06/13 00:58:29;;;;;;;2.70;2.15;;;;;;;22.49;68.19;100392.91;1736149;81;21427;-57
2021/06/13 01:00:55;;;;;;;3.67;2.30;;;;;;;22.49;68.17;100393.51;1733826;81;21353;-57
2021/06/13 01:03:21;;;;;;;2.55;1.95;;;;;;;22.48;68.13;100392.69;1738056;81;21935;-57
2021/06/13 01:05:47;;;;;;;2.05;1.62;;;;;;;22.45;68.07;100388.41;1735015;81;21035;-56
2021/06/13 01:08:22;;;;;;;3.10;1.92;;;;;;;22.43;68.03;100387.35;1736980;81;21115;-56
2021/06/13 01:11:23;;;;;;;2.87;2.08;;;;;;;22.41;68.02;100384.09;1737857;81;21182;-57
2021/06/13 01:14:10;;;;;;;2.70;1.95;;;;;;;22.38;67.99;100379.23;1736878;81;21024;-56
2021/06/13 01:17:03;;;;;;;3.05;2.00;;;;;;;22.37;67.93;100374.84;1737779;80;21832;-57
2021/06/13 01:19:41;;;;;;;2.37;1.92;;;;;;;22.37;67.95;100379.56;1734496;81;21060;-56
2021/06/13 01:22:21;;;;;;;2.45;1.85;;;;;;;22.35;68.03;100366.06;1734625;81;21494;-57
2021/06/13 01:25:07;;;;;;;2.55;2.00;;;;;;;22.35;68.11;100363.30;1737155;81;21067;-56
2021/06/13 01:27:59;;;;;;;2.75;2.00;;;;;;;22.35;68.19;100361.91;1738794;81;21451;-56
2021/06/13 01:30:26;;;;;;;1.92;1.70;;;;;;;22.33;68.19;100354.50;1741629;81;21150;-56
2021/06/13 01:32:53;;;;;;;3.92;2.10;;;;;;;22.32;68.17;100352.30;1740337;81;21020;-57
2021/06/13 01:35:22;;;;;;;2.27;1.90;;;;;;;22.30;68.12;100349.07;1730488;81;21056;-56
2021/06/13 01:37:53;;;;;;;2.50;1.85;;;;;;;22.29;68.12;100347.44;1736515;81;21415;-56
2021/06/13 01:40:21;;;;;;;3.02;1.98;;;;;;;;;;1738355;81;21170;-56
2021/06/13 01:42:51;;;;;;;3.40;2.10;;;;;;;22.24;68.00;100339.33;1737263;81;21143;-56
2021/06/13 01:45:19;;;;;;;1.52;1.42;;;;;;;22.22;67.95;100336.67;1732955;81;21080;-56
2021/06/13 01:47:45;;;;;;;2.22;1.80;;;;;;;22.21;67.94;100330.32;1737361;81;21093;-56
2021/06/13 01:50:12;;;;;;;2.72;1.52;;;;;;;22.22;67.96;100324.20;1682234;82;21544;-57
2021/06/13 01:52:38;;;;;;;2.75;1.92;;;;;;;22.23;68.06;100329.42;1737359;81;21032;-57
2021/06/13 01:55:09;;;;;;;2.40;1.80;;;;;;;;;;1733890;81;21273;-61
2021/06/13 01:57:35;;;;;;;3.30;2.08;;;;;;;22.30;68.24;100333.02;1737246;81;21020;-56
2021/06/13 02:00:05;;;;;;;2.92;1.90;;;;;;;22.33;68.28;100321.23;1707503;82;20975;-56
2021/06/13 02:02:31;;;;;;;2.70;1.80;;;;;;;22.37;68.28;100322.75;1743243;80;20998;-56
2021/06/13 02:04:57;;;;;;;2.60;1.90;;;;;;;22.41;68.24;100328.66;1737599;81;21514;-56
2021/06/13 02:07:23;;;;;;;3.00;2.00;;;;;;;22.45;68.17;100321.87;1738868;81;21317;-56
2021/06/13 02:09:49;;;;;;;2.10;1.70;;;;;;;22.47;68.13;100313.45;1703852;82;21569;-56
2021/06/13 02:12:15;;;;;;;2.25;1.87;;;;;;;22.50;68.06;100310.55;1736290;81;20964;-56
2021/06/13 02:14:44;;;;;;;1.95;1.75;;;;;;;22.52;68.01;100311.84;1737555;81;21040;-56
2021/06/13 02:17:10;;;;;;;2.17;1.67;;;;;;;22.56;67.92;100315.55;1735382;81;21072;-56
2021/06/13 02:19:37;;;;;;;1.90;1.57;;;;;;;22.61;67.91;100313.14;1737404;81;21010;-56
2021/06/13 02:22:03;;;;;;;2.10;1.40;;;;;;;22.65;67.95;100319.05;1734545;81;21018;-56
2021/06/13 02:24:34;;;;;;;2.27;1.90;;;;;;;22.69;67.98;100313.08;1738555;81;21012;-56
2021/06/13 02:27:01;;;;;;;2.15;1.60;;;;;;;22.73;68.02;100319.55;1737943;81;21118;-56
2021/06/13 02:29:28;;;;;;;2.40;1.77;;;;;;;22.75;68.02;100315.84;1736495;81;21056;-56
2021/06/13 02:31:55;;;;;;;2.33;1.70;;;;;;;22.79;67.99;100315.18;1737788;81;21872;-56
2021/06/13 02:34:27;;;;;;;2.33;1.92;;;;;;;22.80;67.94;100317.59;1736141;81;21099;-56
2021/06/13 02:36:55;;;;;;;2.05;1.85;;;;;;;22.82;67.87;100318.06;1738672;81;21372;-57
2021/06/13 02:39:21;;;;;;;2.20;1.60;;;;;;;22.82;67.81;100310.33;1734611;81;21144;-56
2021/06/13 02:41:48;;;;;;;2.45;1.90;;;;;;;22.81;67.73;100308.70;1734203;81;21067;-57
2021/06/13 02:44:15;;;;;;;2.25;1.77;;;;;;;22.83;67.67;100305.80;1716522;82;21017;-57
2021/06/13 02:46:41;;;;;;;1.87;1.60;;;;;;;22.85;67.64;100308.23;1721427;82;21498;-56
2021/06/13 02:49:09;;;;;;;1.95;1.75;;;;;;;22.85;67.67;100315.98;1721265;82;21108;-56
2021/06/13 02:51:40;;;;;;;1.60;1.50;;;;;;;22.85;67.73;100313.78;1716590;82;21084;-57
2021/06/13 02:54:09;;;;;;;2.80;1.82;;;;;;;22.86;67.78;100311.25;1720305;82;21409;-56
2021/06/13 02:56:55;;;;;;;2.00;1.57;;;;;;;22.85;67.78;100306.28;1717207;82;21028;-56
2021/06/13 02:59:47;;;;;;;3.35;1.87;;;;;;;22.85;67.76;100304.89;1715627;82;21493;-56
2021/06/13 03:02:14;;;;;;;2.35;1.65;;;;;;;22.83;67.69;100304.41;1719531;82;21585;-56
2021/06/13 03:04:43;;;;;;;2.10;1.72;;;;;;;22.80;67.62;100309.27;1715906;82;21141;-56
2021/06/13 03:07:10;;;;;;;2.20;1.90;;;;;;;22.78;67.59;100308.82;1716298;82;21021;-56
2021/06/13 03:09:36;;;;;;;2.60;2.15;;;;;;;22.75;67.54;100303.94;1684578;82;20960;-57
2021/06/13 03:12:04;;;;;;;2.33;1.75;;;;;;;22.74;67.51;100310.06;1720792;82;21100;-56
2021/06/13 03:14:31;;;;;;;2.33;1.55;;;;;;;22.74;67.51;100306.50;1717647;82;21100;-56
2021/06/13 03:16:58;;;;;;;3.37;1.90;;;;;;;22.74;67.58;100305.90;1713040;82;21602;-56
2021/06/13 03:19:25;;;;;;;1.92;1.60;;;;;;;22.72;67.64;100305.45;1719651;82;21098;-56
2021/06/13 03:21:52;;;;;;;2.00;1.70;;;;;;;22.72;67.71;100300.47;1721003;81;21635;-56
2021/06/13 03:24:21;;;;;;;2.65;1.95;;;;;;;22.70;67.76;100302.20;1709840;82;21008;-56
2021/06/13 03:26:47;;;;;;;3.10;1.90;;;;;;;22.69;67.74;100298.40;1715928;82;21565;-56
2021/06/13 03:29:13;;;;;;;3.10;1.90;;;;;;;22.67;67.73;100309.80;1694239;83;21042;-56
2021/06/13 03:31:39;;;;;;;3.87;2.10;;;;;;;22.65;67.69;100303.80;1728022;81;21032;-60
2021/06/13 03:34:07;;;;;;;2.58;2.15;;;;;;;22.63;67.68;100290.84;1703864;83;21093;-56
2021/06/13 03:36:33;;;;;;;3.08;2.10;;;;;;;22.60;67.64;100294.87;1718290;81;21042;-56
2021/06/13 03:39:00;;;;;;;3.37;1.90;;;;;;;22.59;67.61;100296.02;1707597;81;21004;-57
2021/06/13 03:41:26;;;;;;;2.55;2.00;;;;;;;22.59;67.58;100290.48;1730399;81;21102;-56
2021/06/13 03:43:53;;;;;;;2.17;1.70;;;;;;;22.59;67.60;100294.06;1703164;83;21032;-56
2021/06/13 03:46:19;;;;;;;2.25;1.82;;;;;;;22.58;67.66;100291.63;1703207;83;22113;-56
2021/06/13 03:48:49;;;;;;;2.75;1.77;;;;;;;22.57;67.71;100292.23;1664743;84;21085;-57
2021/06/13 03:51:15;;;;;;;2.35;1.80;;;;;;;22.58;67.77;100288.28;1726752;81;21592;-57
2021/06/13 03:53:47;;;;;;;4.10;1.98;;;;;;;22.55;67.79;100284.81;1712809;81;21134;-57
2021/06/13 03:56:19;;;;;;;3.08;2.00;;;;;;;22.55;67.78;100277.07;1704104;83;21045;-58
2021/06/13 03:58:46;;;;;;;2.40;2.00;;;;;;;22.54;67.76;100273.48;1718396;81;23243;-58
2021/06/13 04:01:14;;;;;;;3.02;2.15;;;;;;;22.54;67.73;100273.48;1718055;81;21439;-57
2021/06/13 04:03:41;;;;;;;3.10;2.10;;;;;;;22.52;67.65;100278.58;1728184;81;21104;-57
2021/06/13 04:06:08;;;;;;;2.70;1.72;;;;;;;22.50;67.62;100273.94;1728980;81;21592;-57
2021/06/13 04:08:36;;;;;;;2.40;1.95;;;;;;;22.47;67.57;100263.55;1713328;81;21059;-57
2021/06/13 04:11:02;;;;;;;2.47;1.92;;;;;;;22.48;67.51;100262.97;1706844;83;21310;-57
2021/06/13 04:13:28;;;;;;;2.83;1.85;;;;;;;22.50;67.49;100271.74;1713818;81;21060;-58
2021/06/13 04:15:55;;;;;;;2.95;2.10;;;;;;;22.49;67.56;100265.98;1714371;81;21056;-57
2021/06/13 04:18:21;;;;;;;2.95;1.95;;;;;;;22.49;67.63;100276.47;1719170;81;21527;-57
2021/06/13 04:20:47;;;;;;;3.10;2.08;;;;;;;22.49;67.70;100266.77;1713657;81;21044;-58
2021/06/13 04:23:14;;;;;;;3.62;2.42;;;;;;;22.48;67.70;100261.59;1719695;81;21310;-58
2021/06/13 04:25:40;;;;;;;2.25;1.82;;;;;;;22.48;67.69;100267.13;1720027;81;21103;-57
2021/06/13 04:28:06;;;;;;;2.65;2.08;;;;;;;22.47;67.66;100268.28;1712703;82;21159;-57
2021/06/13 04:30:33;;;;;;;2.67;2.20;;;;;;;22.46;67.61;100270.81;1715516;82;21491;-58
2021/06/13 04:32:59;;;;;;;2.12;1.92;;;;;;;22.45;67.58;100285.23;1711162;82;21047;-58
2021/06/13 04:35:26;;;;;;;2.80;2.05;;;;;;;22.42;67.51;100273.46;1714210;82;21289;-57
2021/06/13 04:37:53;;;;;;;2.72;2.00;;;;;;;22.42;67.49;100267.11;1711218;82;21544;-58
2021/06/13 04:40:19;;;;;;;2.52;2.02;;;;;;;22.40;67.46;100269.42;1716708;82;21203;-56
2021/06/13 04:42:45;;;;;;;2.70;1.95;;;;;;;22.40;67.40;100264.70;1719617;81;21615;-56
2021/06/13 04:45:13;;;;;;;2.58;1.95;;;;;;;22.40;67.40;100256.95;1740529;81;21015;-57
2021/06/13 04:47:40;;;;;;;2.75;1.85;;;;;;;22.41;67.43;100259.36;1737949;81;21638;-57
2021/06/13 04:50:07;;;;;;;2.25;1.70;;;;;;;22.41;67.51;100253.81;1738858;82;20873;-57
2021/06/13 04:52:33;;;;;;;3.35;2.00;;;;;;;22.41;67.58;100248.27;1740464;81;21072;-56
2021/06/13 04:55:23;;;;;;;2.67;2.40;;;;;;;22.42;67.60;100244.93;1735949;81;21123;-56
2021/06/13 04:58:04;;;;;;;2.55;2.33;;;;;;;22.40;67.57;100245.30;1740876;81;21491;-57
2021/06/13 05:00:30;;;;;;;3.00;2.25;;;;;;;22.41;67.53;100237.76;1739208;81;21662;-58
2021/06/13 05:02:56;;;;;;;2.58;2.02;;;;;;;22.39;67.45;100232.58;1740557;81;20892;-57
2021/06/13 05:05:22;;;;;;;3.42;2.50;;;;;;;22.38;67.42;100230.95;1739808;81;21483;-56
2021/06/13 05:07:48;;;;;;;2.55;1.90;;;;;;;22.37;67.36;100237.64;1737286;81;22052;-57
2021/06/13 05:10:14;;;;;;;2.90;2.22;;;;;;;22.35;67.33;100227.49;1717994;81;21074;-57
2021/06/13 05:12:50;;;;;;;2.90;2.22;;;;;;;22.37;67.29;100230.71;1728069;81;21562;-57
2021/06/13 05:15:18;;;;;;;2.27;2.08;;;;;;;22.38;67.25;100229.56;1728704;81;21099;-56
2021/06/13 05:17:44;;;;;;;2.22;1.90;;;;;;;22.39;67.30;100221.49;1733090;81;21458;-57
2021/06/13 05:20:12;;;;;;;3.02;2.17;;;;;;;22.41;67.36;100230.83;1715960;81;21766;-57
2021/06/13 05:22:57;;;;;;;2.72;1.92;;;;;;;22.41;67.41;100230.83;1719205;81;21065;-56
2021/06/13 05:25:26;;;;;;;3.98;2.20;;;;;;;22.42;67.43;100232.45;1727005;81;21095;-56
2021/06/13 05:27:58;;;;;;;2.30;1.92;;;;;;;22.42;67.39;100232.45;1720822;81;21019;-56
2021/06/13 05:30:26;;;;;;;3.90;2.50;;;;;;;22.40;67.35;100231.44;1748507;80;21493;-56
2021/06/13 05:32:53;;;;;;;2.83;2.15;;;;;;;22.40;67.33;100230.63;1728934;81;21886;-56
2021/06/13 05:35:19;;;;;;;2.75;2.25;;;;;;;22.40;67.28;100230.05;1715235;81;21605;-57
2021/06/13 05:37:45;;;;;;;2.75;2.35;;;;;;;22.39;67.21;100222.06;1717661;81;22089;-56
2021/06/13 05:40:13;;;;;;;2.67;2.10;;;;;;;22.38;67.17;100213.52;1739813;81;21032;-57
2021/06/13 05:42:39;;;;;;;2.65;2.25;;;;;;;22.37;67.17;100213.27;1737038;81;21562;-56
2021/06/13 05:45:07;;;;;;;3.37;2.47;;;;;;;22.37;67.11;100215.47;1738600;81;21099;-56
2021/06/13 05:47:33;;;;;;;2.30;2.00;;;;;;;22.37;67.11;100214.08;1737512;81;21032;-56
2021/06/13 05:49:59;;;;;;;2.50;1.95;;;;;;;22.38;67.17;100212.12;1734814;81;21590;-57
2021/06/13 05:52:25;;;;;;;2.30;1.92;;;;;;;22.39;67.26;100207.64;1736123;81;21701;-57
2021/06/13 05:54:52;;;;;;;2.92;2.50;;;;;;;22.39;67.34;100216.52;1733826;81;21068;-56
2021/06/13 05:57:18;;;;;;;3.05;2.58;;;;;;;22.38;67.36;100205.20;1736772;81;21515;-57
2021/06/13 05:59:44;;;;;;;2.92;2.15;;;;;;;22.37;67.34;100200.80;1738448;81;21091;-57
2021/06/13 06:02:10;;;;;;;2.50;2.10;;;;;;;22.36;67.32;100191.70;1738899;81;21154;-56
2021/06/13 06:04:36;;;;;;;2.75;2.30;;;;;;;22.36;67.30;100198.62;1735098;82;21486;-57
2021/06/13 06:07:03;;;;;;;3.30;2.37;;;;;;;22.35;67.27;100196.19;1735487;81;21344;-57
2021/06/13 06:09:29;;;;;;;2.40;2.20;;;;;;;22.33;67.26;100194.56;1738094;81;21079;-57
2021/06/13 06:11:56;;;;;;;3.00;2.67;;;;;;;22.32;67.21;100190.74;1736791;81;21083;-57
2021/06/13 06:14:22;;;;;;;2.65;2.25;;;;;;;22.31;67.21;100185.80;1735262;82;21089;-56
2021/06/13 06:16:48;;;;;;;2.67;2.30;;;;;;;;;;1736361;81;21112;-57
2021/06/13 06:19:14;;;;;;;3.10;2.20;;;;;;;22.35;67.18;100182.34;1739698;81;20959;-57
2021/06/13 06:21:40;;;;;;;2.55;1.90;;;;;;;22.36;67.23;100186.16;1737336;81;21111;-56
2021/06/13 06:24:07;;;;;;;2.52;2.33;;;;;;;22.39;67.30;100186.03;1733142;81;20916;-56
2021/06/13 06:26:33;;;;;;;2.60;2.02;;;;;;;22.39;67.35;100187.42;1735254;81;21158;-56
2021/06/13 06:28:59;;;;;;;3.33;2.37;;;;;;;22.39;67.37;100192.97;1734942;81;21067;-56
2021/06/13 06:31:25;;;;;;;3.02;2.33;;;;;;;22.39;67.36;100184.08;1739250;81;21642;-57
2021/06/13 06:33:51;;;;;;;3.42;2.40;;;;;;;22.40;67.33;100187.66;1736616;81;21082;-57
2021/06/13 06:36:17;;;;;;;3.20;2.60;;;;;;;22.40;67.28;100186.27;1735495;81;21075;-57
2021/06/13 06:38:44;;;;;;;3.47;2.55;;;;;;;22.40;67.23;100178.77;1734917;81;21198;-57
2021/06/13 06:41:10;;;;;;;2.90;2.25;;;;;;;22.41;67.20;100180.37;1733886;81;21735;-56
2021/06/13 06:43:36;;;;;;;3.08;2.45;;;;;;;22.40;67.15;100174.61;1729106;81;21049;-56
2021/06/13 06:46:02;;;;;;;2.72;2.22;;;;;;;22.40;67.12;100165.48;1710016;83;21079;-56
2021/06/13 06:48:28;;;;;;;2.95;2.60;;;;;;;22.43;67.05;100161.44;1713642;81;21087;-56
2021/06/13 06:50:56;;;;;;;2.40;2.12;;;;;;;22.44;67.05;100158.91;1705048;83;21849;-56
2021/06/13 06:53:22;;;;;;;2.92;2.52;;;;;;;22.47;67.08;100150.47;1705550;83;21032;-56
2021/06/13 06:55:48;;;;;;;2.50;2.30;;;;;;;22.48;67.13;100155.67;1717943;81;21049;-56
2021/06/13 06:58:14;;;;;;;3.65;2.52;;;;;;;22.50;67.19;100155.31;1686030;83;21549;-57
2021/06/13 07:00:40;;;;;;;2.67;2.40;;;;;;;22.50;67.20;100152.54;1700324;83;20945;-56
2021/06/13 07:03:11;;;;;;;3.12;2.62;;;;;;;22.51;67.17;100156.94;1714270;83;21508;-56
2021/06/13 07:05:34;;;;;;;3.25;2.42;;;;;;;22.52;67.14;100160.77;1700325;83;21569;-57
2021/06/13 07:08:00;;;;;;;2.75;2.40;;;;;;;22.52;67.08;100159.37;1717023;81;20897;-56
2021/06/13 07:10:27;;;;;;;3.62;2.50;;;;;;;22.52;67.02;100157.98;1696461;83;21125;-56
2021/06/13 07:12:52;;;;;;;3.25;2.67;;;;;;;22.52;66.98;100169.08;1703728;83;21024;-57
2021/06/13 07:15:19;;;;;;;3.20;2.67;;;;;;;22.52;66.95;100167.69;1702005;83;21153;-56
2021/06/13 07:17:45;;;;;;;3.52;2.65;;;;;;;22.51;66.91;100170.22;1695572;83;21495;-57
2021/06/13 07:20:13;;;;;;;2.92;2.35;;;;;;;22.52;66.85;100164.11;1712380;81;21116;-57
2021/06/13 07:22:39;;;;;;;4.22;2.80;;;;;;;22.54;66.88;100163.98;1717538;81;21001;-56
2021/06/13 07:25:07;;;;;;;3.33;2.62;;;;;;;22.55;66.93;100161.45;1714519;81;21099;-57
2021/06/13 07:27:35;;;;;;;3.37;2.50;;;;;;;22.56;67.00;100150.59;1701139;83;21551;-56
2021/06/13 07:30:01;;;;;;;3.00;2.70;;;;;;;22.58;67.08;100155.20;1699402;83;21124;-57
2021/06/13 07:32:27;;;;;;;3.80;3.10;;;;;;;22.58;67.09;100146.88;1694692;83;21500;-57
2021/06/13 07:34:53;;;;;;;4.28;3.12;;;;;;;22.59;67.09;100149.89;1704642;83;20894;-56
2021/06/13 07:37:19;;;;;;;3.55;2.58;;;;;;;22.60;67.04;100153.48;1700508;83;21023;-56
2021/06/13 07:39:45;;;;;;;5.08;2.77;;;;;;;22.60;67.03;100147.94;1700457;83;21149;-56
2021/06/13 07:42:11;;;;;;;3.40;2.98;;;;;;;22.62;67.00;100146.42;1696720;83;21032;-57
2021/06/13 07:44:37;;;;;;;4.55;3.22;;;;;;;22.63;66.94;100141.11;1698111;83;21072;-57
2021/06/13 07:47:04;;;;;;;3.62;3.33;;;;;;;22.64;66.91;100137.19;1673737;83;21006;-57
2021/06/13 07:49:30;;;;;;;3.35;2.87;;;;;;;22.64;66.86;100119.17;1699929;83;21009;-57
2021/06/13 07:51:58;;;;;;;3.40;3.02;;;;;;;22.66;66.82;100122.39;1693976;83;21090;-56
2021/06/13 07:54:25;;;;;;;2.83;2.47;;;;;;;22.71;66.84;100124.95;1699120;83;21643;-57
2021/06/13 07:56:51;;;;;;;3.52;3.00;;;;;;;22.73;66.89;100129.59;1697716;83;21531;-56
2021/06/13 07:59:19;;;;;;;3.30;3.00;;;;;;;22.75;66.94;100128.65;1698357;83;21634;-56
2021/06/13 08:01:45;;;;;;;4.12;3.10;;;;;;;22.76;67.00;100127.50;1694824;83;21116;-57
2021/06/13 08:04:11;;;;;;;3.87;2.90;;;;;;;22.76;67.00;100121.95;1696338;83;21275;-57
2021/06/13 08:06:37;;;;;;;3.17;2.72;;;;;;;22.78;66.97;100120.80;1695838;83;21025;-57
2021/06/13 08:09:05;;;;;;;3.55;3.25;;;;;;;22.80;66.94;100115.70;1693255;83;21088;-56
2021/06/13 08:11:31;;;;;;;3.25;2.95;;;;;;;22.80;66.90;100115.13;1701051;83;21246;-56
2021/06/13 08:13:57;;;;;;;3.27;2.98;;;;;;;22.79;66.85;100105.79;1699622;83;20937;-56
2021/06/13 08:16:23;;;;;;;4.25;2.92;;;;;;;22.78;66.81;100103.59;1698947;83;21316;-58
2021/06/13 08:18:49;;;;;;;3.77;3.37;;;;;;;22.76;66.79;100103.93;1692771;83;21685;-57
2021/06/13 08:21:15;;;;;;;3.62;2.83;;;;;;;22.75;66.76;100102.30;1695752;83;21039;-57
2021/06/13 08:23:41;;;;;;;3.60;2.77;;;;;;;22.77;66.71;100089.48;1697047;83;21016;-57
2021/06/13 08:26:08;;;;;;;2.87;2.55;;;;;;;22.78;66.73;100093.89;1696886;83;21510;-57
2021/06/13 08:28:34;;;;;;;3.30;2.70;;;;;;;22.79;66.80;100087.77;1693268;83;22018;-56
2021/06/13 08:31:00;;;;;;;3.90;2.77;;;;;;;22.79;66.86;100093.31;1698957;83;21207;-57
2021/06/13 08:33:26;;;;;;;3.80;3.00;;;;;;;22.79;66.93;100097.47;1698598;83;21009;-57
2021/06/13 08:35:52;;;;;;;5.22;3.50;;;;;;;22.77;66.96;100089.48;1695844;83;21123;-57
2021/06/13 08:38:21;;;;;;;3.80;3.17;;;;;;;22.77;66.96;100093.65;1695523;83;21100;-57
2021/06/13 08:40:48;;;;;;;4.92;3.08;;;;;;;22.76;66.94;100090.06;1703910;83;21458;-57
2021/06/13 08:43:14;;;;;;;4.42;3.40;;;;;;;22.74;66.91;100082.66;1700368;83;21091;-56
2021/06/13 08:45:40;;;;;;;4.28;3.27;;;;;;;22.72;66.89;100086.38;1713194;82;21040;-57
2021/06/13 08:48:08;;;;;;;3.15;2.85;;;;;;;22.71;66.86;100088.91;1717481;82;21011;-57
2021/06/13 08:50:36;;;;;;;3.90;3.27;;;;;;;22.69;66.84;100090.42;1738426;82;21289;-57
2021/06/13 08:53:02;;;;;;;3.90;3.35;;;;;;;22.70;66.81;100096.21;1723138;81;21551;-56
2021/06/13 08:55:29;;;;;;;3.70;2.90;;;;;;;22.71;66.84;100105.55;1741891;81;21051;-57
2021/06/13 08:57:56;;;;;;;3.22;2.58;;;;;;;22.72;66.91;100101.63;1738755;80;21807;-56
2021/06/13 09:00:30;;;;;;;3.12;2.83;;;;;;;22.72;66.97;100102.20;1719444;82;21129;-57
2021/06/13 09:02:56;;;;;;;3.55;3.00;;;;;;;22.72;67.05;100116.88;1708319;82;21019;-56
2021/06/13 09:05:26;;;;;;;3.77;3.22;;;;;;;22.72;67.06;100116.88;1713266;83;21553;-56
2021/06/13 09:07:58;;;;;;;3.92;3.40;;;;;;;22.72;67.07;100113.30;1743427;81;20986;-56
2021/06/13 09:10:28;;;;;;;3.75;3.10;;;;;;;22.72;67.04;100111.91;1715809;83;21522;-57
2021/06/13 09:13:19;;;;;;;4.60;3.12;;;;;;;22.70;67.01;100105.92;1731276;82;21035;-60
2021/06/13 09:15:53;;;;;;;3.52;3.12;;;;;;;22.70;66.96;100118.39;1711393;82;21024;-58
2021/06/13 09:18:39;;;;;;;4.65;3.40;;;;;;;22.67;66.92;100119.03;1729702;81;21099;-57
2021/06/13 09:21:16;;;;;;;3.70;3.30;;;;;;;22.65;66.91;100111.09;1704927;82;21161;-57
2021/06/13 09:23:42;;;;;;;3.52;2.87;;;;;;;22.65;66.88;100112.47;1716008;81;21542;-57
2021/06/13 09:26:17;;;;;;;3.47;2.70;;;;;;;22.66;66.92;100114.06;1717488;82;21937;-57
2021/06/13 09:28:45;;;;;;;3.55;3.17;;;;;;;22.66;66.98;100113.28;1711234;82;21099;-57
2021/06/13 09:31:24;;;;;;;3.17;2.83;;;;;;;22.66;67.05;100107.73;1716805;82;22128;-57
2021/06/13 09:33:52;;;;;;;4.20;3.22;;;;;;;22.66;67.12;100112.68;1734750;81;21540;-56
2021/06/13 09:36:22;;;;;;;3.62;3.33;;;;;;;22.64;67.17;100117.78;1734813;81;21129;-57
2021/06/13 09:38:48;;;;;;;3.98;3.50;;;;;;;22.66;67.17;100119.61;1730541;81;21063;-57
2021/06/13 09:41:18;;;;;;;4.78;3.52;;;;;;;22.67;67.11;100115.69;1658866;84;21608;-57
2021/06/13 09:43:48;;;;;;;4.03;3.62;;;;;;;22.69;67.08;100119.55;1715841;81;23238;-56
2021/06/13 09:46:18;;;;;;;4.12;3.50;;;;;;;22.67;67.03;100118.46;1695778;83;21097;-57
2021/06/13 09:48:54;;;;;;;4.85;4.10;;;;;;;22.66;67.02;100126.55;1760266;80;22162;-57
2021/06/13 09:51:26;;;;;;;3.92;3.52;;;;;;;22.65;66.98;100122.75;1739946;80;21145;-57
2021/06/13 09:53:55;;;;;;;4.25;2.98;;;;;;;22.63;66.95;100127.82;1727546;82;21511;-57
2021/06/13 09:56:36;;;;;;;3.58;3.05;;;;;;;22.64;66.92;100133.03;1768571;80;21107;-58
2021/06/13 09:59:09;;;;;;;3.65;2.87;;;;;;;22.66;66.94;100122.39;1764464;80;21079;-57
2021/06/13 10:01:49;;;;;;;3.30;3.00;;;;;;;22.67;66.98;100126.78;1727732;81;21048;-57
2021/06/13 10:04:40;;;;;;;4.40;3.80;;;;;;;22.68;67.04;100123.44;1722480;81;21057;-56
2021/06/13 10:07:21;;;;;;;4.28;3.87;;;;;;;22.66;67.12;100130.70;1736919;81;21078;-56
2021/06/13 10:09:53;;;;;;;4.22;3.50;;;;;;;22.66;67.13;100128.53;1736792;81;21814;-56
2021/06/13 10:12:20;;;;;;;4.40;3.90;;;;;;;22.65;67.11;100141.59;1737924;81;21048;-56
2021/06/13 10:14:51;;;;;;;4.90;3.90;;;;;;;22.62;67.10;100145.03;1737578;81;21087;-57
2021/06/13 10:17:17;;;;;;;4.33;3.92;;;;;;;22.61;67.08;100142.63;1735185;81;21115;-57
2021/06/13 10:19:49;;;;;;;4.95;4.25;;;;;;;22.59;67.05;100137.99;1736784;81;21509;-57
2021/06/13 10:22:17;;;;;;;4.35;3.90;;;;;;;22.56;67.06;100133.96;1736447;81;21143;-56
2021/06/13 10:24:45;;;;;;;4.25;3.85;;;;;;;22.56;67.05;100145.05;1735915;81;21115;-57
2021/06/13 10:27:15;;;;;;;4.03;3.25;;;;;;;22.55;67.01;100137.88;1738193;81;21095;-56
2021/06/13 10:29:43;;;;;;;4.00;3.67;;;;;;;22.55;67.05;100132.34;1732634;81;21099;-57
2021/06/13 10:32:10;;;;;;;5.60;3.77;;;;;;;22.55;67.13;100127.36;1735197;81;21083;-56
2021/06/13 10:34:36;;;;;;;4.33;3.92;;;;;;;22.56;67.23;100127.03;1738426;81;22514;-57
2021/06/13 10:37:06;;;;;;;6.12;4.50;;;;;;;22.55;67.28;100117.09;1737059;81;21111;-56
2021/06/13 10:39:34;;;;;;;4.87;4.37;;;;;;;22.55;67.33;100112.93;1737141;81;21080;-59
2021/06/13 10:42:01;;;;;;;4.25;3.65;;;;;;;22.55;67.31;100103.80;1738422;81;21052;-56
2021/06/13 10:44:31;;;;;;;5.40;4.72;;;;;;;22.53;67.32;100096.42;1736762;81;21075;-58
2021/06/13 10:47:00;;;;;;;5.15;4.65;;;;;;;22.52;67.29;100098.39;1701482;82;21498;-56
2021/06/13 10:49:42;;;;;;;5.08;4.58;;;;;;;22.51;67.30;100098.15;1719867;82;21017;-57
2021/06/13 10:52:11;;;;;;;5.97;4.83;;;;;;;22.49;67.26;100094.91;1715383;81;21676;-57
2021/06/13 10:54:54;;;;;;;5.03;4.50;;;;;;;22.45;67.24;100082.89;1720144;81;21041;-56
2021/06/13 10:57:26;;;;;;;4.30;3.87;;;;;;;22.47;67.23;100085.33;1705357;83;21100;-56
2021/06/13 10:59:56;;;;;;;5.12;4.22;;;;;;;22.47;67.27;100086.14;1691391;83;21128;-56
2021/06/13 11:02:43;;;;;;;4.80;4.30;;;;;;;22.46;67.35;100089.25;1718402;82;21093;-56
2021/06/13 11:05:09;;;;;;;6.10;4.80;;;;;;;22.46;67.43;100082.32;1708818;82;21816;-57
2021/06/13 11:07:53;;;;;;;4.87;4.33;;;;;;;22.46;67.51;100082.32;1718531;82;21554;-56
2021/06/13 11:10:20;;;;;;;6.53;4.85;;;;;;;22.44;67.55;100075.76;1689318;83;21178;-56
2021/06/13 11:13:01;;;;;;;5.20;4.67;;;;;;;22.44;67.54;100082.69;1718502;82;21294;-56
2021/06/13 11:15:39;;;;;;;5.72;5.12;;;;;;;22.43;67.55;100082.45;1709765;82;21395;-56
2021/06/13 11:18:20;;;;;;;5.10;4.60;;;;;;;22.41;67.53;100081.16;1682206;83;21009;-56
2021/06/13 11:21:00;;;;;;;5.97;4.75;;;;;;;22.40;67.50;100085.11;1704569;83;21030;-56
2021/06/13 11:23:27;;;;;;;5.30;4.62;;;;;;;22.38;67.46;100090.17;1723582;82;21044;-56
2021/06/13 11:25:57;;;;;;;4.45;4.05;;;;;;;22.34;67.46;100097.00;1715072;82;21103;-56
2021/06/13 11:28:40;;;;;;;5.53;4.30;;;;;;;22.35;67.44;100093.08;1684824;83;21499;-56
2021/06/13 11:31:16;;;;;;;4.37;3.98;;;;;;;22.36;67.46;100091.12;1715403;81;20993;-56
2021/06/13 11:33:51;;;;;;;4.10;3.70;;;;;;;22.36;67.57;100104.40;1703599;83;21053;-57